0B7 weather

Warren-Sugarbush Airport
Warren, Vermont, United States

Public forecast

Using degrees Fahrenheit for public forecast. Weather courtesy of forecast.io.

Closest aviation weather report (METAR) to Warren-Sugarbush Airport

Closest report is Edward F Knapp State Airport, 12.5 nm (23.2 km) ENE. Retrieved 2020/08/06 05:51 UTC (1 hour ago):

KMPV 060551Z AUTO 07003KT 10SM CLR 13/09 A3010 RMK AO2 SLP193 T01280089 10206 20117 51006

Closest aviation forecast (TAF) to Warren-Sugarbush Airport

Closest forecast is Edward F Knapp State Airport, 12.5 nm (23.2 km) ENE. Retrieved 2020/08/06 06:22 UTC (31 minutes ago):

TAF KMPV 060520Z 0606/0706 VRB04KT P6SM SKC FM061300 28008KT P6SM SKC FM062100 VRB04KT P6SM SKC